sensor_id;sensor_type;location;lat;lon;timestamp;P1;durP1;ratioP1;P2;durP2;ratioP2
15216;SDS011;7711;46.634;14.318;2023-02-11T00:01:52;38.70;;;18.73;;
15216;SDS011;7711;46.634;14.318;2023-02-11T00:04:19;36.80;;;17.67;;
15216;SDS011;7711;46.634;14.318;2023-02-11T00:06:46;34.97;;;17.60;;
15216;SDS011;7711;46.634;14.318;2023-02-11T00:09:13;31.37;;;15.93;;
15216;SDS011;7711;46.634;14.318;2023-02-11T00:11:40;32.87;;;17.07;;
15216;SDS011;7711;46.634;14.318;2023-02-11T00:14:08;33.80;;;16.23;;
15216;SDS011;7711;46.634;14.318;2023-02-11T00:16:36;32.20;;;16.17;;
15216;SDS011;7711;46.634;14.318;2023-02-11T00:19:05;33.47;;;17.17;;
15216;SDS011;7711;46.634;14.318;2023-02-11T00:21:32;32.83;;;16.77;;
15216;SDS011;7711;46.634;14.318;2023-02-11T00:24:00;30.03;;;17.03;;
15216;SDS011;7711;46.634;14.318;2023-02-11T00:26:28;33.07;;;17.13;;
15216;SDS011;7711;46.634;14.318;2023-02-11T00:28:57;35.87;;;17.43;;
15216;SDS011;7711;46.634;14.318;2023-02-11T00:31:25;33.77;;;17.23;;
15216;SDS011;7711;46.634;14.318;2023-02-11T00:33:52;40.83;;;17.73;;
15216;SDS011;7711;46.634;14.318;2023-02-11T00:36:21;36.33;;;17.40;;
15216;SDS011;7711;46.634;14.318;2023-02-11T00:38:50;31.43;;;17.43;;
15216;SDS011;7711;46.634;14.318;2023-02-11T00:41:18;36.53;;;17.23;;
15216;SDS011;7711;46.634;14.318;2023-02-11T00:43:45;36.77;;;17.80;;
15216;SDS011;7711;46.634;14.318;2023-02-11T00:46:13;39.00;;;18.33;;
15216;SDS011;7711;46.634;14.318;2023-02-11T00:48:40;34.40;;;17.07;;
15216;SDS011;7711;46.634;14.318;2023-02-11T00:51:07;35.07;;;17.07;;
15216;SDS011;7711;46.634;14.318;2023-02-11T00:53:36;32.23;;;16.83;;
15216;SDS011;7711;46.634;14.318;2023-02-11T00:56:03;29.23;;;15.77;;
15216;SDS011;7711;46.634;14.318;2023-02-11T00:58:31;36.07;;;16.63;;
15216;SDS011;7711;46.634;14.318;2023-02-11T01:00:58;33.10;;;16.77;;
15216;SDS011;7711;46.634;14.318;2023-02-11T01:03:25;37.73;;;15.73;;
15216;SDS011;7711;46.634;14.318;2023-02-11T01:05:52;29.80;;;15.13;;
15216;SDS011;7711;46.634;14.318;2023-02-11T01:08:19;29.53;;;16.43;;
15216;SDS011;7711;46.634;14.318;2023-02-11T01:10:53;28.60;;;15.60;;
15216;SDS011;7711;46.634;14.318;2023-02-11T01:13:21;30.97;;;15.77;;
15216;SDS011;7711;46.634;14.318;2023-02-11T01:15:49;37.07;;;17.77;;
15216;SDS011;7711;46.634;14.318;2023-02-11T01:18:16;37.47;;;15.93;;
15216;SDS011;7711;46.634;14.318;2023-02-11T01:20:43;35.83;;;16.20;;
15216;SDS011;7711;46.634;14.318;2023-02-11T01:23:10;33.63;;;15.93;;
15216;SDS011;7711;46.634;14.318;2023-02-11T01:25:37;30.23;;;15.77;;
15216;SDS011;7711;46.634;14.318;2023-02-11T01:28:06;31.57;;;14.87;;
15216;SDS011;7711;46.634;14.318;2023-02-11T01:30:37;33.23;;;15.10;;
15216;SDS011;7711;46.634;14.318;2023-02-11T01:33:04;29.97;;;14.87;;
15216;SDS011;7711;46.634;14.318;2023-02-11T01:35:31;29.33;;;14.37;;
15216;SDS011;7711;46.634;14.318;2023-02-11T01:37:58;33.00;;;16.23;;
15216;SDS011;7711;46.634;14.318;2023-02-11T01:40:25;27.73;;;14.57;;
15216;SDS011;7711;46.634;14.318;2023-02-11T01:42:52;28.03;;;15.30;;
15216;SDS011;7711;46.634;14.318;2023-02-11T01:48:23;29.87;;;15.03;;
15216;SDS011;7711;46.634;14.318;2023-02-11T01:50:56;33.13;;;15.73;;
15216;SDS011;7711;46.634;14.318;2023-02-11T01:53:26;37.33;;;17.50;;
15216;SDS011;7711;46.634;14.318;2023-02-11T01:56:12;30.87;;;15.83;;
15216;SDS011;7711;46.634;14.318;2023-02-11T01:58:58;34.17;;;17.40;;
15216;SDS011;7711;46.634;14.318;2023-02-11T02:01:31;33.97;;;16.33;;
15216;SDS011;7711;46.634;14.318;2023-02-11T02:04:00;34.20;;;16.63;;
15216;SDS011;7711;46.634;14.318;2023-02-11T02:06:29;33.70;;;15.50;;
15216;SDS011;7711;46.634;14.318;2023-02-11T02:09:01;33.70;;;15.57;;
15216;SDS011;7711;46.634;14.318;2023-02-11T02:11:31;27.93;;;14.50;;
15216;SDS011;7711;46.634;14.318;2023-02-11T02:13:58;29.63;;;14.57;;
15216;SDS011;7711;46.634;14.318;2023-02-11T02:16:25;26.37;;;14.00;;
15216;SDS011;7711;46.634;14.318;2023-02-11T02:19:03;27.77;;;14.57;;
15216;SDS011;7711;46.634;14.318;2023-02-11T02:21:58;33.13;;;13.87;;
15216;SDS011;7711;46.634;14.318;2023-02-11T02:24:48;28.47;;;14.63;;
15216;SDS011;7711;46.634;14.318;2023-02-11T02:30:30;29.47;;;15.00;;
15216;SDS011;7711;46.634;14.318;2023-02-11T02:33:21;36.23;;;16.23;;
15216;SDS011;7711;46.634;14.318;2023-02-11T02:35:57;36.03;;;16.60;;
15216;SDS011;7711;46.634;14.318;2023-02-11T02:38:33;29.77;;;15.47;;
15216;SDS011;7711;46.634;14.318;2023-02-11T02:41:07;35.77;;;16.70;;
15216;SDS011;7711;46.634;14.318;2023-02-11T02:43:36;33.30;;;15.40;;
15216;SDS011;7711;46.634;14.318;2023-02-11T02:46:12;33.80;;;15.70;;
15216;SDS011;7711;46.634;14.318;2023-02-11T02:48:43;35.60;;;15.80;;
15216;SDS011;7711;46.634;14.318;2023-02-11T02:51:14;31.53;;;16.17;;
15216;SDS011;7711;46.634;14.318;2023-02-11T02:54:03;30.10;;;14.30;;
15216;SDS011;7711;46.634;14.318;2023-02-11T02:56:45;31.63;;;15.37;;
15216;SDS011;7711;46.634;14.318;2023-02-11T02:59:32;26.53;;;13.33;;
15216;SDS011;7711;46.634;14.318;2023-02-11T03:02:10;31.07;;;13.43;;
15216;SDS011;7711;46.634;14.318;2023-02-11T03:04:45;30.13;;;13.73;;
15216;SDS011;7711;46.634;14.318;2023-02-11T03:07:19;26.40;;;14.33;;
15216;SDS011;7711;46.634;14.318;2023-02-11T03:09:52;31.93;;;14.07;;
15216;SDS011;7711;46.634;14.318;2023-02-11T03:12:23;29.77;;;14.40;;
15216;SDS011;7711;46.634;14.318;2023-02-11T03:14:53;25.87;;;14.43;;
15216;SDS011;7711;46.634;14.318;2023-02-11T03:17:20;28.00;;;14.77;;
15216;SDS011;7711;46.634;14.318;2023-02-11T03:19:52;31.50;;;13.87;;
15216;SDS011;7711;46.634;14.318;2023-02-11T03:22:21;27.47;;;14.07;;
15216;SDS011;7711;46.634;14.318;2023-02-11T03:24:50;24.43;;;13.10;;
15216;SDS011;7711;46.634;14.318;2023-02-11T03:27:19;26.27;;;13.33;;
15216;SDS011;7711;46.634;14.318;2023-02-11T03:29:49;26.40;;;13.60;;
15216;SDS011;7711;46.634;14.318;2023-02-11T03:32:22;27.67;;;13.13;;
15216;SDS011;7711;46.634;14.318;2023-02-11T03:34:54;27.47;;;13.30;;
15216;SDS011;7711;46.634;14.318;2023-02-11T03:37:26;25.80;;;13.27;;
15216;SDS011;7711;46.634;14.318;2023-02-11T03:39:56;22.43;;;12.13;;
15216;SDS011;7711;46.634;14.318;2023-02-11T03:42:29;23.47;;;13.07;;
15216;SDS011;7711;46.634;14.318;2023-02-11T03:45:00;32.13;;;14.20;;
15216;SDS011;7711;46.634;14.318;2023-02-11T03:47:31;30.30;;;14.07;;
15216;SDS011;7711;46.634;14.318;2023-02-11T03:50:03;29.83;;;12.80;;
15216;SDS011;7711;46.634;14.318;2023-02-11T03:52:32;31.73;;;14.17;;
15216;SDS011;7711;46.634;14.318;2023-02-11T03:55:02;23.47;;;14.00;;
15216;SDS011;7711;46.634;14.318;2023-02-11T03:57:34;27.33;;;13.57;;
15216;SDS011;7711;46.634;14.318;2023-02-11T04:00:01;31.43;;;13.43;;
15216;SDS011;7711;46.634;14.318;2023-02-11T04:02:29;29.37;;;13.07;;
15216;SDS011;7711;46.634;14.318;2023-02-11T04:04:59;22.50;;;12.47;;
15216;SDS011;7711;46.634;14.318;2023-02-11T04:07:28;30.63;;;13.83;;
15216;SDS011;7711;46.634;14.318;2023-02-11T04:09:55;26.97;;;12.77;;
15216;SDS011;7711;46.634;14.318;2023-02-11T04:12:22;25.27;;;13.07;;
15216;SDS011;7711;46.634;14.318;2023-02-11T04:14:49;26.73;;;12.27;;
15216;SDS011;7711;46.634;14.318;2023-02-11T04:17:16;26.00;;;13.03;;
15216;SDS011;7711;46.634;14.318;2023-02-11T04:19:43;28.60;;;13.80;;
15216;SDS011;7711;46.634;14.318;2023-02-11T04:22:10;28.43;;;13.83;;
15216;SDS011;7711;46.634;14.318;2023-02-11T04:24:39;24.80;;;13.83;;
15216;SDS011;7711;46.634;14.318;2023-02-11T04:27:08;30.47;;;14.20;;
15216;SDS011;7711;46.634;14.318;2023-02-11T04:29:35;25.43;;;13.27;;
15216;SDS011;7711;46.634;14.318;2023-02-11T04:32:02;34.37;;;14.53;;
15216;SDS011;7711;46.634;14.318;2023-02-11T04:34:29;28.47;;;14.40;;
15216;SDS011;7711;46.634;14.318;2023-02-11T04:36:56;30.50;;;14.77;;
15216;SDS011;7711;46.634;14.318;2023-02-11T04:39:23;31.07;;;14.97;;
15216;SDS011;7711;46.634;14.318;2023-02-11T04:41:52;27.63;;;15.30;;
15216;SDS011;7711;46.634;14.318;2023-02-11T04:44:19;30.20;;;15.13;;
15216;SDS011;7711;46.634;14.318;2023-02-11T04:46:46;29.83;;;14.57;;
15216;SDS011;7711;46.634;14.318;2023-02-11T04:49:14;30.30;;;14.80;;
15216;SDS011;7711;46.634;14.318;2023-02-11T04:51:41;30.50;;;15.33;;
15216;SDS011;7711;46.634;14.318;2023-02-11T04:54:10;31.60;;;15.43;;
15216;SDS011;7711;46.634;14.318;2023-02-11T04:56:37;32.87;;;15.63;;
15216;SDS011;7711;46.634;14.318;2023-02-11T04:59:06;28.30;;;14.93;;
15216;SDS011;7711;46.634;14.318;2023-02-11T05:01:33;31.67;;;14.47;;
15216;SDS011;7711;46.634;14.318;2023-02-11T05:04:00;28.07;;;15.17;;
15216;SDS011;7711;46.634;14.318;2023-02-11T05:06:27;31.73;;;13.77;;
15216;SDS011;7711;46.634;14.318;2023-02-11T05:08:55;30.43;;;14.70;;
15216;SDS011;7711;46.634;14.318;2023-02-11T05:11:23;30.73;;;15.57;;
15216;SDS011;7711;46.634;14.318;2023-02-11T05:13:51;33.83;;;15.90;;
15216;SDS011;7711;46.634;14.318;2023-02-11T05:16:19;36.10;;;16.33;;
15216;SDS011;7711;46.634;14.318;2023-02-11T05:18:46;30.37;;;15.53;;
15216;SDS011;7711;46.634;14.318;2023-02-11T05:21:14;36.93;;;17.00;;
15216;SDS011;7711;46.634;14.318;2023-02-11T05:23:43;33.50;;;15.50;;
15216;SDS011;7711;46.634;14.318;2023-02-11T05:26:11;32.23;;;17.67;;
15216;SDS011;7711;46.634;14.318;2023-02-11T05:28:38;67.97;;;24.37;;
15216;SDS011;7711;46.634;14.318;2023-02-11T05:31:06;82.00;;;29.10;;
15216;SDS011;7711;46.634;14.318;2023-02-11T05:33:35;94.23;;;32.10;;
15216;SDS011;7711;46.634;14.318;2023-02-11T05:36:03;78.47;;;27.70;;
15216;SDS011;7711;46.634;14.318;2023-02-11T05:38:32;74.30;;;26.07;;
15216;SDS011;7711;46.634;14.318;2023-02-11T05:41:00;71.00;;;25.30;;
15216;SDS011;7711;46.634;14.318;2023-02-11T05:43:27;56.33;;;22.73;;
15216;SDS011;7711;46.634;14.318;2023-02-11T05:45:54;52.30;;;21.67;;
15216;SDS011;7711;46.634;14.318;2023-02-11T05:48:21;44.97;;;20.40;;
15216;SDS011;7711;46.634;14.318;2023-02-11T05:50:50;45.77;;;20.47;;
15216;SDS011;7711;46.634;14.318;2023-02-11T05:53:17;45.77;;;18.83;;
15216;SDS011;7711;46.634;14.318;2023-02-11T05:55:44;40.87;;;18.80;;
15216;SDS011;7711;46.634;14.318;2023-02-11T05:58:11;50.57;;;19.13;;
15216;SDS011;7711;46.634;14.318;2023-02-11T06:00:38;41.93;;;17.97;;
15216;SDS011;7711;46.634;14.318;2023-02-11T06:03:06;34.80;;;15.97;;
15216;SDS011;7711;46.634;14.318;2023-02-11T06:05:33;30.43;;;15.53;;
15216;SDS011;7711;46.634;14.318;2023-02-11T06:08:01;37.77;;;16.33;;
15216;SDS011;7711;46.634;14.318;2023-02-11T06:10:28;34.50;;;15.57;;
15216;SDS011;7711;46.634;14.318;2023-02-11T06:12:55;34.30;;;16.23;;
15216;SDS011;7711;46.634;14.318;2023-02-11T06:15:23;64.73;;;21.97;;
15216;SDS011;7711;46.634;14.318;2023-02-11T06:17:50;54.63;;;20.40;;
15216;SDS011;7711;46.634;14.318;2023-02-11T06:20:17;49.37;;;21.20;;
15216;SDS011;7711;46.634;14.318;2023-02-11T06:22:45;48.10;;;18.23;;
15216;SDS011;7711;46.634;14.318;2023-02-11T06:25:13;39.63;;;17.70;;
15216;SDS011;7711;46.634;14.318;2023-02-11T06:27:41;50.00;;;21.67;;
15216;SDS011;7711;46.634;14.318;2023-02-11T06:30:08;43.93;;;21.33;;
15216;SDS011;7711;46.634;14.318;2023-02-11T06:32:36;42.60;;;19.73;;
15216;SDS011;7711;46.634;14.318;2023-02-11T06:35:03;46.40;;;20.57;;
15216;SDS011;7711;46.634;14.318;2023-02-11T06:37:32;36.33;;;18.97;;
15216;SDS011;7711;46.634;14.318;2023-02-11T06:39:59;44.60;;;19.33;;
15216;SDS011;7711;46.634;14.318;2023-02-11T06:42:27;41.90;;;18.57;;
15216;SDS011;7711;46.634;14.318;2023-02-11T06:44:54;38.87;;;18.97;;
15216;SDS011;7711;46.634;14.318;2023-02-11T06:47:22;45.33;;;18.90;;
15216;SDS011;7711;46.634;14.318;2023-02-11T06:49:49;36.47;;;17.23;;
15216;SDS011;7711;46.634;14.318;2023-02-11T06:52:16;40.70;;;18.50;;
15216;SDS011;7711;46.634;14.318;2023-02-11T06:54:43;39.50;;;16.47;;
15216;SDS011;7711;46.634;14.318;2023-02-11T06:57:10;37.60;;;16.37;;
15216;SDS011;7711;46.634;14.318;2023-02-11T06:59:38;39.70;;;17.13;;
15216;SDS011;7711;46.634;14.318;2023-02-11T07:02:07;46.03;;;17.23;;
15216;SDS011;7711;46.634;14.318;2023-02-11T07:04:35;55.80;;;19.50;;
15216;SDS011;7711;46.634;14.318;2023-02-11T07:07:02;31.17;;;14.03;;
15216;SDS011;7711;46.634;14.318;2023-02-11T07:09:29;27.13;;;12.57;;
15216;SDS011;7711;46.634;14.318;2023-02-11T07:11:56;29.70;;;13.73;;
15216;SDS011;7711;46.634;14.318;2023-02-11T07:14:23;28.23;;;13.50;;
15216;SDS011;7711;46.634;14.318;2023-02-11T07:16:51;28.57;;;14.13;;
15216;SDS011;7711;46.634;14.318;2023-02-11T07:19:18;29.57;;;15.00;;
15216;SDS011;7711;46.634;14.318;2023-02-11T07:21:45;31.87;;;17.47;;
15216;SDS011;7711;46.634;14.318;2023-02-11T07:24:13;32.43;;;16.60;;
15216;SDS011;7711;46.634;14.318;2023-02-11T07:26:40;30.03;;;17.20;;
15216;SDS011;7711;46.634;14.318;2023-02-11T07:29:08;33.50;;;17.13;;
15216;SDS011;7711;46.634;14.318;2023-02-11T07:31:35;30.43;;;17.03;;
15216;SDS011;7711;46.634;14.318;2023-02-11T07:34:04;30.57;;;15.47;;
15216;SDS011;7711;46.634;14.318;2023-02-11T07:36:31;51.33;;;24.67;;
15216;SDS011;7711;46.634;14.318;2023-02-11T07:38:58;33.63;;;15.37;;
15216;SDS011;7711;46.634;14.318;2023-02-11T07:41:25;31.20;;;15.83;;
15216;SDS011;7711;46.634;14.318;2023-02-11T07:43:53;29.93;;;14.67;;
15216;SDS011;7711;46.634;14.318;2023-02-11T07:46:21;28.10;;;15.30;;
15216;SDS011;7711;46.634;14.318;2023-02-11T07:48:49;29.60;;;15.27;;
15216;SDS011;7711;46.634;14.318;2023-02-11T07:51:19;28.97;;;14.87;;
15216;SDS011;7711;46.634;14.318;2023-02-11T07:53:48;25.67;;;14.00;;
15216;SDS011;7711;46.634;14.318;2023-02-11T07:56:16;26.33;;;13.30;;
15216;SDS011;7711;46.634;14.318;2023-02-11T07:58:44;26.57;;;13.67;;
15216;SDS011;7711;46.634;14.318;2023-02-11T08:01:12;23.23;;;13.37;;
15216;SDS011;7711;46.634;14.318;2023-02-11T08:03:41;25.13;;;12.87;;
15216;SDS011;7711;46.634;14.318;2023-02-11T08:06:09;25.60;;;13.17;;
15216;SDS011;7711;46.634;14.318;2023-02-11T08:08:40;25.80;;;11.90;;
15216;SDS011;7711;46.634;14.318;2023-02-11T08:11:08;25.10;;;12.20;;
15216;SDS011;7711;46.634;14.318;2023-02-11T08:13:36;20.37;;;11.30;;
15216;SDS011;7711;46.634;14.318;2023-02-11T08:16:04;21.83;;;11.13;;
15216;SDS011;7711;46.634;14.318;2023-02-11T08:18:32;17.60;;;10.27;;
15216;SDS011;7711;46.634;14.318;2023-02-11T08:21:02;19.00;;;10.47;;
15216;SDS011;7711;46.634;14.318;2023-02-11T08:23:31;18.97;;;10.33;;
15216;SDS011;7711;46.634;14.318;2023-02-11T08:26:01;20.83;;;10.53;;
15216;SDS011;7711;46.634;14.318;2023-02-11T08:28:28;22.47;;;12.03;;
15216;SDS011;7711;46.634;14.318;2023-02-11T08:30:56;30.77;;;16.27;;
15216;SDS011;7711;46.634;14.318;2023-02-11T08:33:23;27.47;;;14.50;;
15216;SDS011;7711;46.634;14.318;2023-02-11T08:35:50;26.97;;;14.27;;
15216;SDS011;7711;46.634;14.318;2023-02-11T08:38:17;21.40;;;12.87;;
15216;SDS011;7711;46.634;14.318;2023-02-11T08:40:44;26.27;;;14.00;;
15216;SDS011;7711;46.634;14.318;2023-02-11T08:43:12;26.43;;;13.70;;
15216;SDS011;7711;46.634;14.318;2023-02-11T08:45:39;26.63;;;14.20;;
15216;SDS011;7711;46.634;14.318;2023-02-11T08:48:06;32.13;;;14.33;;
15216;SDS011;7711;46.634;14.318;2023-02-11T08:50:33;28.43;;;14.37;;
15216;SDS011;7711;46.634;14.318;2023-02-11T08:53:03;33.37;;;15.00;;
15216;SDS011;7711;46.634;14.318;2023-02-11T08:55:30;23.70;;;14.30;;
15216;SDS011;7711;46.634;14.318;2023-02-11T08:57:57;28.67;;;14.17;;
15216;SDS011;7711;46.634;14.318;2023-02-11T09:00:25;25.17;;;14.50;;
15216;SDS011;7711;46.634;14.318;2023-02-11T09:02:52;28.27;;;14.50;;
15216;SDS011;7711;46.634;14.318;2023-02-11T09:05:19;25.33;;;13.87;;
15216;SDS011;7711;46.634;14.318;2023-02-11T09:07:47;28.57;;;14.03;;
15216;SDS011;7711;46.634;14.318;2023-02-11T09:10:14;24.87;;;13.63;;
15216;SDS011;7711;46.634;14.318;2023-02-11T09:12:41;25.30;;;13.47;;
15216;SDS011;7711;46.634;14.318;2023-02-11T09:15:08;23.83;;;13.10;;
15216;SDS011;7711;46.634;14.318;2023-02-11T09:17:37;22.43;;;13.87;;
15216;SDS011;7711;46.634;14.318;2023-02-11T09:20:04;24.43;;;12.70;;
15216;SDS011;7711;46.634;14.318;2023-02-11T09:22:32;22.60;;;12.53;;
15216;SDS011;7711;46.634;14.318;2023-02-11T09:25:00;21.13;;;12.13;;
15216;SDS011;7711;46.634;14.318;2023-02-11T09:27:27;23.63;;;14.73;;
15216;SDS011;7711;46.634;14.318;2023-02-11T09:29:54;29.20;;;15.73;;
15216;SDS011;7711;46.634;14.318;2023-02-11T09:32:21;31.20;;;16.83;;
15216;SDS011;7711;46.634;14.318;2023-02-11T09:34:50;29.63;;;16.33;;
15216;SDS011;7711;46.634;14.318;2023-02-11T09:37:17;27.20;;;16.10;;
15216;SDS011;7711;46.634;14.318;2023-02-11T09:39:44;32.10;;;16.50;;
15216;SDS011;7711;46.634;14.318;2023-02-11T09:45:14;28.20;;;16.33;;
15216;SDS011;7711;46.634;14.318;2023-02-11T09:47:45;26.43;;;16.67;;
15216;SDS011;7711;46.634;14.318;2023-02-11T09:50:18;28.60;;;14.93;;
15216;SDS011;7711;46.634;14.318;2023-02-11T09:52:51;25.10;;;16.30;;
15216;SDS011;7711;46.634;14.318;2023-02-11T09:55:24;27.13;;;14.87;;
15216;SDS011;7711;46.634;14.318;2023-02-11T09:57:53;25.33;;;15.37;;
15216;SDS011;7711;46.634;14.318;2023-02-11T10:00:22;24.07;;;15.53;;
15216;SDS011;7711;46.634;14.318;2023-02-11T10:02:55;24.07;;;14.47;;
15216;SDS011;7711;46.634;14.318;2023-02-11T10:05:32;29.07;;;14.40;;
15216;SDS011;7711;46.634;14.318;2023-02-11T10:08:11;26.80;;;14.80;;
15216;SDS011;7711;46.634;14.318;2023-02-11T10:10:46;20.93;;;13.23;;
15216;SDS011;7711;46.634;14.318;2023-02-11T10:16:14;25.73;;;14.33;;
15216;SDS011;7711;46.634;14.318;2023-02-11T10:18:57;20.17;;;13.30;;
15216;SDS011;7711;46.634;14.318;2023-02-11T10:21:43;23.60;;;13.23;;
15216;SDS011;7711;46.634;14.318;2023-02-11T10:24:17;32.47;;;17.97;;
15216;SDS011;7711;46.634;14.318;2023-02-11T10:26:45;29.07;;;18.93;;
15216;SDS011;7711;46.634;14.318;2023-02-11T10:29:25;34.40;;;19.93;;
15216;SDS011;7711;46.634;14.318;2023-02-11T10:32:00;31.77;;;19.30;;
15216;SDS011;7711;46.634;14.318;2023-02-11T10:34:38;30.73;;;20.23;;
15216;SDS011;7711;46.634;14.318;2023-02-11T10:37:09;27.57;;;21.33;;
15216;SDS011;7711;46.634;14.318;2023-02-11T10:39:39;31.17;;;19.03;;
15216;SDS011;7711;46.634;14.318;2023-02-11T10:42:07;32.97;;;20.07;;
15216;SDS011;7711;46.634;14.318;2023-02-11T10:44:37;33.37;;;18.47;;
15216;SDS011;7711;46.634;14.318;2023-02-11T10:47:09;33.33;;;19.50;;
15216;SDS011;7711;46.634;14.318;2023-02-11T10:49:40;29.77;;;18.23;;
15216;SDS011;7711;46.634;14.318;2023-02-11T10:52:13;30.50;;;16.40;;
15216;SDS011;7711;46.634;14.318;2023-02-11T10:54:54;34.83;;;18.03;;
15216;SDS011;7711;46.634;14.318;2023-02-11T10:57:27;27.23;;;16.33;;
15216;SDS011;7711;46.634;14.318;2023-02-11T10:59:59;31.47;;;17.20;;
15216;SDS011;7711;46.634;14.318;2023-02-11T11:02:30;27.37;;;16.10;;
15216;SDS011;7711;46.634;14.318;2023-02-11T11:05:03;30.57;;;17.20;;
15216;SDS011;7711;46.634;14.318;2023-02-11T11:07:41;26.87;;;15.23;;
15216;SDS011;7711;46.634;14.318;2023-02-11T11:10:25;27.13;;;17.73;;
15216;SDS011;7711;46.634;14.318;2023-02-11T11:12:59;27.13;;;17.27;;
15216;SDS011;7711;46.634;14.318;2023-02-11T11:15:27;30.73;;;16.60;;
15216;SDS011;7711;46.634;14.318;2023-02-11T11:18:09;27.47;;;15.60;;
15216;SDS011;7711;46.634;14.318;2023-02-11T11:20:41;21.93;;;14.77;;
15216;SDS011;7711;46.634;14.318;2023-02-11T11:23:20;24.77;;;15.50;;
15216;SDS011;7711;46.634;14.318;2023-02-11T11:25:57;26.73;;;15.53;;
15216;SDS011;7711;46.634;14.318;2023-02-11T11:28:28;24.30;;;15.27;;
15216;SDS011;7711;46.634;14.318;2023-02-11T11:31:00;24.83;;;14.73;;
15216;SDS011;7711;46.634;14.318;2023-02-11T11:33:28;27.33;;;15.33;;
15216;SDS011;7711;46.634;14.318;2023-02-11T11:36:00;26.83;;;15.20;;
15216;SDS011;7711;46.634;14.318;2023-02-11T11:38:33;30.03;;;14.93;;
15216;SDS011;7711;46.634;14.318;2023-02-11T11:41:13;26.27;;;14.63;;
15216;SDS011;7711;46.634;14.318;2023-02-11T11:43:52;22.13;;;13.60;;
15216;SDS011;7711;46.634;14.318;2023-02-11T11:46:25;21.60;;;14.37;;
15216;SDS011;7711;46.634;14.318;2023-02-11T11:48:55;21.20;;;13.53;;
15216;SDS011;7711;46.634;14.318;2023-02-11T11:51:29;24.57;;;15.23;;
15216;SDS011;7711;46.634;14.318;2023-02-11T11:54:01;22.67;;;14.80;;
15216;SDS011;7711;46.634;14.318;2023-02-11T11:56:32;21.67;;;14.17;;
15216;SDS011;7711;46.634;14.318;2023-02-11T11:59:02;21.03;;;14.47;;
15216;SDS011;7711;46.634;14.318;2023-02-11T12:01:39;24.63;;;14.93;;
15216;SDS011;7711;46.634;14.318;2023-02-11T12:04:20;25.63;;;14.43;;
15216;SDS011;7711;46.634;14.318;2023-02-11T12:07:18;20.27;;;14.07;;
15216;SDS011;7711;46.634;14.318;2023-02-11T12:10:05;20.53;;;13.80;;
15216;SDS011;7711;46.634;14.318;2023-02-11T12:12:53;20.70;;;13.27;;
15216;SDS011;7711;46.634;14.318;2023-02-11T12:15:27;20.83;;;13.40;;
15216;SDS011;7711;46.634;14.318;2023-02-11T12:18:15;18.57;;;13.23;;
15216;SDS011;7711;46.634;14.318;2023-02-11T12:20:56;19.17;;;13.00;;
15216;SDS011;7711;46.634;14.318;2023-02-11T12:23:40;19.50;;;13.57;;
15216;SDS011;7711;46.634;14.318;2023-02-11T12:26:20;22.70;;;12.83;;
15216;SDS011;7711;46.634;14.318;2023-02-11T12:28:52;19.27;;;12.63;;
15216;SDS011;7711;46.634;14.318;2023-02-11T12:31:32;19.97;;;12.50;;
15216;SDS011;7711;46.634;14.318;2023-02-11T12:34:18;23.23;;;13.40;;
15216;SDS011;7711;46.634;14.318;2023-02-11T12:37:06;20.10;;;13.70;;
15216;SDS011;7711;46.634;14.318;2023-02-11T12:39:47;21.20;;;14.67;;
15216;SDS011;7711;46.634;14.318;2023-02-11T12:42:22;23.57;;;14.33;;
15216;SDS011;7711;46.634;14.318;2023-02-11T12:45:29;23.17;;;13.80;;
15216;SDS011;7711;46.634;14.318;2023-02-11T12:48:13;23.73;;;14.77;;
15216;SDS011;7711;46.634;14.318;2023-02-11T12:50:55;19.90;;;13.63;;
15216;SDS011;7711;46.634;14.318;2023-02-11T12:53:29;23.53;;;14.23;;
15216;SDS011;7711;46.634;14.318;2023-02-11T12:56:16;22.90;;;13.63;;
15216;SDS011;7711;46.634;14.318;2023-02-11T12:58:51;22.40;;;12.63;;
15216;SDS011;7711;46.634;14.318;2023-02-11T13:01:22;20.87;;;14.07;;
15216;SDS011;7711;46.634;14.318;2023-02-11T13:03:55;20.17;;;12.13;;
15216;SDS011;7711;46.634;14.318;2023-02-11T13:06:32;17.70;;;13.00;;
15216;SDS011;7711;46.634;14.318;2023-02-11T13:09:04;19.23;;;12.63;;
15216;SDS011;7711;46.634;14.318;2023-02-11T13:11:37;18.30;;;11.40;;
15216;SDS011;7711;46.634;14.318;2023-02-11T13:14:08;17.00;;;11.97;;
15216;SDS011;7711;46.634;14.318;2023-02-11T13:16:41;17.67;;;11.87;;
15216;SDS011;7711;46.634;14.318;2023-02-11T13:19:15;16.73;;;11.37;;
15216;SDS011;7711;46.634;14.318;2023-02-11T13:24:37;16.37;;;11.50;;
15216;SDS011;7711;46.634;14.318;2023-02-11T13:27:11;20.33;;;12.15;;
15216;SDS011;7711;46.634;14.318;2023-02-11T13:30:01;18.98;;;11.70;;
15216;SDS011;7711;46.634;14.318;2023-02-11T13:35:43;15.30;;;11.18;;
15216;SDS011;7711;46.634;14.318;2023-02-11T13:38:18;13.80;;;11.25;;
15216;SDS011;7711;46.634;14.318;2023-02-11T13:40:58;16.08;;;11.23;;
15216;SDS011;7711;46.634;14.318;2023-02-11T13:43:27;16.02;;;11.00;;
15216;SDS011;7711;46.634;14.318;2023-02-11T13:45:58;15.52;;;10.88;;
15216;SDS011;7711;46.634;14.318;2023-02-11T13:48:28;19.25;;;10.60;;
15216;SDS011;7711;46.634;14.318;2023-02-11T13:50:59;16.42;;;10.60;;
15216;SDS011;7711;46.634;14.318;2023-02-11T13:53:29;15.48;;;10.80;;
15216;SDS011;7711;46.634;14.318;2023-02-11T13:56:11;14.52;;;10.82;;
15216;SDS011;7711;46.634;14.318;2023-02-11T13:58:49;14.77;;;9.35;;
15216;SDS011;7711;46.634;14.318;2023-02-11T14:04:18;13.13;;;10.48;;
15216;SDS011;7711;46.634;14.318;2023-02-11T14:10:17;14.55;;;10.38;;
15216;SDS011;7711;46.634;14.318;2023-02-11T14:13:19;14.07;;;9.77;;
15216;SDS011;7711;46.634;14.318;2023-02-11T14:16:07;13.65;;;9.80;;
15216;SDS011;7711;46.634;14.318;2023-02-11T14:18:56;13.20;;;9.88;;
15216;SDS011;7711;46.634;14.318;2023-02-11T14:21:30;11.05;;;9.90;;
15216;SDS011;7711;46.634;14.318;2023-02-11T14:27:13;11.32;;;9.30;;
15216;SDS011;7711;46.634;14.318;2023-02-11T14:29:48;17.98;;;10.10;;
15216;SDS011;7711;46.634;14.318;2023-02-11T14:32:40;12.10;;;9.88;;
15216;SDS011;7711;46.634;14.318;2023-02-11T14:35:21;10.20;;;9.20;;
15216;SDS011;7711;46.634;14.318;2023-02-11T14:37:56;11.73;;;9.55;;
15216;SDS011;7711;46.634;14.318;2023-02-11T14:40:33;13.57;;;10.18;;
15216;SDS011;7711;46.634;14.318;2023-02-11T14:43:10;11.13;;;9.15;;
15216;SDS011;7711;46.634;14.318;2023-02-11T14:45:39;14.35;;;9.88;;
15216;SDS011;7711;46.634;14.318;2023-02-11T14:48:12;13.07;;;9.73;;
15216;SDS011;7711;46.634;14.318;2023-02-11T14:50:44;15.32;;;10.55;;
15216;SDS011;7711;46.634;14.318;2023-02-11T14:53:16;16.30;;;10.38;;
15216;SDS011;7711;46.634;14.318;2023-02-11T14:55:48;13.23;;;9.98;;
15216;SDS011;7711;46.634;14.318;2023-02-11T14:58:18;15.10;;;10.15;;
15216;SDS011;7711;46.634;14.318;2023-02-11T15:00:58;17.23;;;10.55;;
15216;SDS011;7711;46.634;14.318;2023-02-11T15:03:28;16.00;;;10.52;;
15216;SDS011;7711;46.634;14.318;2023-02-11T15:06:00;13.93;;;10.43;;
15216;SDS011;7711;46.634;14.318;2023-02-11T15:08:30;14.40;;;10.10;;
15216;SDS011;7711;46.634;14.318;2023-02-11T15:11:00;14.50;;;10.45;;
15216;SDS011;7711;46.634;14.318;2023-02-11T15:13:33;13.85;;;10.73;;